sensor_id;sensor_type;location;lat;lon;timestamp;P1;durP1;ratioP1;P2;durP2;ratioP2
27213;SDS011;14723;55.814;37.460;2023-04-03T00:00:43;27.27;;;14.02;;
27213;SDS011;14723;55.814;37.460;2023-04-03T00:03:48;20.98;;;12.40;;
27213;SDS011;14723;55.814;37.460;2023-04-03T00:06:54;28.13;;;14.05;;
27213;SDS011;14723;55.814;37.460;2023-04-03T00:09:59;26.63;;;14.85;;
27213;SDS011;14723;55.814;37.460;2023-04-03T00:13:04;25.77;;;14.40;;
27213;SDS011;14723;55.814;37.460;2023-04-03T00:16:13;23.83;;;14.43;;
27213;SDS011;14723;55.814;37.460;2023-04-03T00:19:18;20.50;;;13.90;;
27213;SDS011;14723;55.814;37.460;2023-04-03T00:22:23;22.63;;;14.23;;
27213;SDS011;14723;55.814;37.460;2023-04-03T00:25:30;22.88;;;14.32;;
27213;SDS011;14723;55.814;37.460;2023-04-03T00:28:36;25.73;;;14.82;;
27213;SDS011;14723;55.814;37.460;2023-04-03T00:31:44;22.70;;;14.45;;
27213;SDS011;14723;55.814;37.460;2023-04-03T00:34:49;28.73;;;15.75;;
27213;SDS011;14723;55.814;37.460;2023-04-03T00:37:55;29.17;;;15.20;;
27213;SDS011;14723;55.814;37.460;2023-04-03T00:41:01;25.55;;;14.90;;
27213;SDS011;14723;55.814;37.460;2023-04-03T00:44:19;27.55;;;14.45;;
27213;SDS011;14723;55.814;37.460;2023-04-03T00:50:33;24.55;;;14.18;;
27213;SDS011;14723;55.814;37.460;2023-04-03T00:53:40;26.50;;;15.27;;
27213;SDS011;14723;55.814;37.460;2023-04-03T00:56:46;22.73;;;14.50;;
27213;SDS011;14723;55.814;37.460;2023-04-03T00:59:54;25.17;;;14.68;;
27213;SDS011;14723;55.814;37.460;2023-04-03T01:03:00;22.20;;;13.77;;
27213;SDS011;14723;55.814;37.460;2023-04-03T01:06:08;22.80;;;13.82;;
27213;SDS011;14723;55.814;37.460;2023-04-03T01:09:13;22.48;;;13.63;;
27213;SDS011;14723;55.814;37.460;2023-04-03T01:12:20;26.52;;;13.40;;
27213;SDS011;14723;55.814;37.460;2023-04-03T01:15:26;28.17;;;14.55;;
27213;SDS011;14723;55.814;37.460;2023-04-03T01:18:32;22.38;;;13.75;;
27213;SDS011;14723;55.814;37.460;2023-04-03T01:21:52;23.25;;;14.82;;
27213;SDS011;14723;55.814;37.460;2023-04-03T01:25:02;22.08;;;14.15;;
27213;SDS011;14723;55.814;37.460;2023-04-03T01:28:09;24.20;;;14.38;;
27213;SDS011;14723;55.814;37.460;2023-04-03T01:31:16;24.08;;;13.88;;
27213;SDS011;14723;55.814;37.460;2023-04-03T01:34:27;22.98;;;14.25;;
27213;SDS011;14723;55.814;37.460;2023-04-03T01:37:33;27.73;;;15.02;;
27213;SDS011;14723;55.814;37.460;2023-04-03T01:40:39;24.00;;;14.48;;
27213;SDS011;14723;55.814;37.460;2023-04-03T01:43:45;28.33;;;15.98;;
27213;SDS011;14723;55.814;37.460;2023-04-03T01:46:50;26.75;;;14.80;;
27213;SDS011;14723;55.814;37.460;2023-04-03T01:50:00;28.48;;;16.02;;
27213;SDS011;14723;55.814;37.460;2023-04-03T01:53:07;25.55;;;17.45;;
27213;SDS011;14723;55.814;37.460;2023-04-03T01:56:13;29.05;;;15.55;;
27213;SDS011;14723;55.814;37.460;2023-04-03T01:59:19;28.00;;;15.68;;
27213;SDS011;14723;55.814;37.460;2023-04-03T02:02:25;27.75;;;16.30;;
27213;SDS011;14723;55.814;37.460;2023-04-03T02:05:34;34.40;;;16.73;;
27213;SDS011;14723;55.814;37.460;2023-04-03T02:08:39;26.63;;;16.85;;
27213;SDS011;14723;55.814;37.460;2023-04-03T02:11:45;28.27;;;16.75;;
27213;SDS011;14723;55.814;37.460;2023-04-03T02:14:50;33.72;;;17.65;;
27213;SDS011;14723;55.814;37.460;2023-04-03T02:17:55;29.17;;;16.13;;
27213;SDS011;14723;55.814;37.460;2023-04-03T02:21:04;29.75;;;15.98;;
27213;SDS011;14723;55.814;37.460;2023-04-03T02:24:09;29.90;;;16.30;;
27213;SDS011;14723;55.814;37.460;2023-04-03T02:27:15;27.70;;;16.98;;
27213;SDS011;14723;55.814;37.460;2023-04-03T02:30:20;34.20;;;16.55;;
27213;SDS011;14723;55.814;37.460;2023-04-03T02:33:25;32.53;;;17.20;;
27213;SDS011;14723;55.814;37.460;2023-04-03T02:36:34;29.55;;;16.88;;
27213;SDS011;14723;55.814;37.460;2023-04-03T02:39:43;31.80;;;17.27;;
27213;SDS011;14723;55.814;37.460;2023-04-03T02:42:48;37.65;;;17.60;;
27213;SDS011;14723;55.814;37.460;2023-04-03T02:45:54;35.08;;;18.35;;
27213;SDS011;14723;55.814;37.460;2023-04-03T02:49:00;33.78;;;17.70;;
27213;SDS011;14723;55.814;37.460;2023-04-03T02:52:08;34.55;;;17.70;;
27213;SDS011;14723;55.814;37.460;2023-04-03T02:55:14;35.05;;;18.27;;
27213;SDS011;14723;55.814;37.460;2023-04-03T02:58:23;39.55;;;20.80;;
27213;SDS011;14723;55.814;37.460;2023-04-03T03:01:31;43.63;;;18.67;;
27213;SDS011;14723;55.814;37.460;2023-04-03T03:04:37;32.88;;;17.60;;
27213;SDS011;14723;55.814;37.460;2023-04-03T03:07:45;34.85;;;18.83;;
27213;SDS011;14723;55.814;37.460;2023-04-03T03:10:50;27.05;;;16.92;;
27213;SDS011;14723;55.814;37.460;2023-04-03T03:13:56;30.00;;;15.73;;
27213;SDS011;14723;55.814;37.460;2023-04-03T03:17:01;36.67;;;15.43;;
27213;SDS011;14723;55.814;37.460;2023-04-03T03:20:08;22.45;;;13.75;;
27213;SDS011;14723;55.814;37.460;2023-04-03T03:23:16;31.73;;;14.32;;
27213;SDS011;14723;55.814;37.460;2023-04-03T03:26:22;25.23;;;13.57;;
27213;SDS011;14723;55.814;37.460;2023-04-03T03:29:27;27.95;;;14.80;;
27213;SDS011;14723;55.814;37.460;2023-04-03T03:32:33;27.95;;;15.18;;
27213;SDS011;14723;55.814;37.460;2023-04-03T03:35:39;32.90;;;16.30;;
27213;SDS011;14723;55.814;37.460;2023-04-03T03:38:47;25.42;;;16.02;;
27213;SDS011;14723;55.814;37.460;2023-04-03T03:41:52;26.33;;;15.98;;
27213;SDS011;14723;55.814;37.460;2023-04-03T03:44:58;25.20;;;14.93;;
27213;SDS011;14723;55.814;37.460;2023-04-03T03:48:04;27.35;;;15.02;;
27213;SDS011;14723;55.814;37.460;2023-04-03T03:51:10;21.83;;;13.73;;
27213;SDS011;14723;55.814;37.460;2023-04-03T03:54:18;30.10;;;15.55;;
27213;SDS011;14723;55.814;37.460;2023-04-03T03:57:24;26.48;;;14.85;;
27213;SDS011;14723;55.814;37.460;2023-04-03T04:00:31;25.15;;;13.40;;
27213;SDS011;14723;55.814;37.460;2023-04-03T04:03:37;28.20;;;13.60;;
27213;SDS011;14723;55.814;37.460;2023-04-03T04:06:46;29.10;;;14.35;;
27213;SDS011;14723;55.814;37.460;2023-04-03T04:09:54;21.90;;;12.88;;
27213;SDS011;14723;55.814;37.460;2023-04-03T04:13:00;26.70;;;14.00;;
27213;SDS011;14723;55.814;37.460;2023-04-03T04:16:06;21.63;;;12.63;;
27213;SDS011;14723;55.814;37.460;2023-04-03T04:19:12;19.35;;;12.15;;
27213;SDS011;14723;55.814;37.460;2023-04-03T04:22:19;25.52;;;12.98;;
27213;SDS011;14723;55.814;37.460;2023-04-03T04:25:27;21.05;;;12.38;;
27213;SDS011;14723;55.814;37.460;2023-04-03T04:28:33;20.38;;;12.45;;
27213;SDS011;14723;55.814;37.460;2023-04-03T04:31:39;26.38;;;13.55;;
27213;SDS011;14723;55.814;37.460;2023-04-03T04:34:45;28.08;;;13.80;;
27213;SDS011;14723;55.814;37.460;2023-04-03T04:37:51;21.23;;;13.13;;
27213;SDS011;14723;55.814;37.460;2023-04-03T04:40:59;23.08;;;13.82;;
27213;SDS011;14723;55.814;37.460;2023-04-03T04:44:05;26.40;;;14.85;;
27213;SDS011;14723;55.814;37.460;2023-04-03T04:47:11;27.02;;;13.27;;
27213;SDS011;14723;55.814;37.460;2023-04-03T04:50:17;26.55;;;14.50;;
27213;SDS011;14723;55.814;37.460;2023-04-03T04:53:23;25.20;;;14.05;;
27213;SDS011;14723;55.814;37.460;2023-04-03T04:56:31;23.70;;;14.30;;
27213;SDS011;14723;55.814;37.460;2023-04-03T04:59:37;24.77;;;13.43;;
27213;SDS011;14723;55.814;37.460;2023-04-03T05:02:42;22.77;;;13.02;;
27213;SDS011;14723;55.814;37.460;2023-04-03T05:05:48;20.08;;;12.43;;
27213;SDS011;14723;55.814;37.460;2023-04-03T05:08:54;22.40;;;13.65;;
27213;SDS011;14723;55.814;37.460;2023-04-03T05:12:02;25.17;;;12.82;;
27213;SDS011;14723;55.814;37.460;2023-04-03T05:15:14;23.02;;;12.95;;
27213;SDS011;14723;55.814;37.460;2023-04-03T05:18:20;24.58;;;13.20;;
27213;SDS011;14723;55.814;37.460;2023-04-03T05:21:27;22.77;;;12.73;;
27213;SDS011;14723;55.814;37.460;2023-04-03T05:24:39;28.58;;;15.32;;
27213;SDS011;14723;55.814;37.460;2023-04-03T05:27:47;23.10;;;13.45;;
27213;SDS011;14723;55.814;37.460;2023-04-03T05:30:53;25.10;;;13.38;;
27213;SDS011;14723;55.814;37.460;2023-04-03T05:34:05;19.58;;;12.70;;
27213;SDS011;14723;55.814;37.460;2023-04-03T05:37:12;24.73;;;12.38;;
27213;SDS011;14723;55.814;37.460;2023-04-03T05:40:17;25.10;;;12.98;;
27213;SDS011;14723;55.814;37.460;2023-04-03T05:43:28;23.17;;;12.65;;
27213;SDS011;14723;55.814;37.460;2023-04-03T05:46:35;21.92;;;12.98;;
27213;SDS011;14723;55.814;37.460;2023-04-03T05:52:50;31.50;;;13.88;;
27213;SDS011;14723;55.814;37.460;2023-04-03T05:55:57;23.73;;;13.05;;
27213;SDS011;14723;55.814;37.460;2023-04-03T06:02:15;23.67;;;12.75;;
27213;SDS011;14723;55.814;37.460;2023-04-03T06:05:22;22.85;;;13.40;;
27213;SDS011;14723;55.814;37.460;2023-04-03T06:08:27;20.83;;;12.93;;
27213;SDS011;14723;55.814;37.460;2023-04-03T06:11:32;22.23;;;12.57;;
27213;SDS011;14723;55.814;37.460;2023-04-03T06:14:38;25.38;;;12.82;;
27213;SDS011;14723;55.814;37.460;2023-04-03T06:17:46;24.25;;;12.13;;
27213;SDS011;14723;55.814;37.460;2023-04-03T06:20:52;29.40;;;12.40;;
27213;SDS011;14723;55.814;37.460;2023-04-03T06:23:59;32.40;;;13.10;;
27213;SDS011;14723;55.814;37.460;2023-04-03T06:27:04;25.52;;;12.73;;
27213;SDS011;14723;55.814;37.460;2023-04-03T06:30:10;26.77;;;13.50;;
27213;SDS011;14723;55.814;37.460;2023-04-03T06:33:18;31.60;;;14.48;;
27213;SDS011;14723;55.814;37.460;2023-04-03T06:36:23;28.05;;;13.18;;
27213;SDS011;14723;55.814;37.460;2023-04-03T06:39:29;36.35;;;13.70;;
27213;SDS011;14723;55.814;37.460;2023-04-03T06:42:35;35.55;;;14.45;;
27213;SDS011;14723;55.814;37.460;2023-04-03T06:45:44;36.22;;;14.23;;
27213;SDS011;14723;55.814;37.460;2023-04-03T06:48:52;30.00;;;14.23;;
27213;SDS011;14723;55.814;37.460;2023-04-03T06:51:58;30.70;;;12.98;;
27213;SDS011;14723;55.814;37.460;2023-04-03T06:55:03;30.20;;;13.45;;
27213;SDS011;14723;55.814;37.460;2023-04-03T06:58:09;23.35;;;11.55;;
27213;SDS011;14723;55.814;37.460;2023-04-03T07:01:15;29.77;;;12.82;;
27213;SDS011;14723;55.814;37.460;2023-04-03T07:04:24;33.00;;;13.88;;
27213;SDS011;14723;55.814;37.460;2023-04-03T07:10:37;25.50;;;13.23;;
27213;SDS011;14723;55.814;37.460;2023-04-03T07:13:43;28.88;;;13.60;;
27213;SDS011;14723;55.814;37.460;2023-04-03T07:16:48;28.00;;;12.45;;
27213;SDS011;14723;55.814;37.460;2023-04-03T07:19:56;21.92;;;11.77;;
27213;SDS011;14723;55.814;37.460;2023-04-03T07:23:05;30.45;;;12.23;;
27213;SDS011;14723;55.814;37.460;2023-04-03T07:26:11;26.33;;;12.90;;
27213;SDS011;14723;55.814;37.460;2023-04-03T07:29:16;30.65;;;13.13;;
27213;SDS011;14723;55.814;37.460;2023-04-03T07:32:22;22.55;;;11.93;;
27213;SDS011;14723;55.814;37.460;2023-04-03T07:35:30;26.52;;;11.05;;
27213;SDS011;14723;55.814;37.460;2023-04-03T07:38:36;23.02;;;11.95;;
27213;SDS011;14723;55.814;37.460;2023-04-03T07:41:41;21.05;;;12.23;;
27213;SDS011;14723;55.814;37.460;2023-04-03T07:44:48;23.88;;;12.15;;
27213;SDS011;14723;55.814;37.460;2023-04-03T07:47:53;19.73;;;11.45;;
27213;SDS011;14723;55.814;37.460;2023-04-03T07:51:02;19.58;;;11.75;;
27213;SDS011;14723;55.814;37.460;2023-04-03T07:54:09;25.70;;;12.60;;
27213;SDS011;14723;55.814;37.460;2023-04-03T07:57:14;42.42;;;15.40;;
27213;SDS011;14723;55.814;37.460;2023-04-03T08:00:20;25.30;;;13.38;;
27213;SDS011;14723;55.814;37.460;2023-04-03T08:03:26;28.30;;;12.07;;
27213;SDS011;14723;55.814;37.460;2023-04-03T08:06:35;24.67;;;12.98;;
27213;SDS011;14723;55.814;37.460;2023-04-03T08:09:47;27.13;;;13.25;;
27213;SDS011;14723;55.814;37.460;2023-04-03T08:12:53;32.33;;;13.10;;
27213;SDS011;14723;55.814;37.460;2023-04-03T08:16:06;28.30;;;13.05;;
27213;SDS011;14723;55.814;37.460;2023-04-03T08:19:11;26.02;;;11.77;;
27213;SDS011;14723;55.814;37.460;2023-04-03T08:22:30;32.60;;;13.70;;
27213;SDS011;14723;55.814;37.460;2023-04-03T08:25:37;25.65;;;12.50;;
27213;SDS011;14723;55.814;37.460;2023-04-03T08:28:43;23.27;;;12.07;;
27213;SDS011;14723;55.814;37.460;2023-04-03T08:31:48;47.53;;;13.52;;
27213;SDS011;14723;55.814;37.460;2023-04-03T08:34:54;25.52;;;13.43;;
27213;SDS011;14723;55.814;37.460;2023-04-03T08:38:02;28.17;;;13.10;;
27213;SDS011;14723;55.814;37.460;2023-04-03T08:41:11;27.77;;;12.52;;
27213;SDS011;14723;55.814;37.460;2023-04-03T08:44:21;28.00;;;12.48;;
27213;SDS011;14723;55.814;37.460;2023-04-03T08:47:31;33.22;;;14.77;;
27213;SDS011;14723;55.814;37.460;2023-04-03T08:50:38;27.65;;;14.13;;
27213;SDS011;14723;55.814;37.460;2023-04-03T08:53:49;28.17;;;13.43;;
27213;SDS011;14723;55.814;37.460;2023-04-03T08:56:57;31.25;;;14.25;;
27213;SDS011;14723;55.814;37.460;2023-04-03T09:00:04;36.75;;;15.23;;
27213;SDS011;14723;55.814;37.460;2023-04-03T09:03:21;43.20;;;15.57;;
27213;SDS011;14723;55.814;37.460;2023-04-03T09:06:27;32.33;;;15.02;;
27213;SDS011;14723;55.814;37.460;2023-04-03T09:09:38;31.20;;;14.88;;
27213;SDS011;14723;55.814;37.460;2023-04-03T09:12:44;28.08;;;13.98;;
27213;SDS011;14723;55.814;37.460;2023-04-03T09:15:53;29.80;;;15.18;;
27213;SDS011;14723;55.814;37.460;2023-04-03T09:19:02;33.88;;;15.60;;
27213;SDS011;14723;55.814;37.460;2023-04-03T09:22:13;34.97;;;15.38;;
27213;SDS011;14723;55.814;37.460;2023-04-03T09:25:23;31.58;;;15.52;;
27213;SDS011;14723;55.814;37.460;2023-04-03T09:28:30;33.00;;;16.48;;
27213;SDS011;14723;55.814;37.460;2023-04-03T09:31:48;31.17;;;17.30;;
27213;SDS011;14723;55.814;37.460;2023-04-03T09:34:53;40.00;;;17.70;;
27213;SDS011;14723;55.814;37.460;2023-04-03T09:38:14;37.83;;;17.63;;
27213;SDS011;14723;55.814;37.460;2023-04-03T09:41:23;37.55;;;16.80;;
27213;SDS011;14723;55.814;37.460;2023-04-03T09:44:30;36.70;;;17.05;;
27213;SDS011;14723;55.814;37.460;2023-04-03T09:47:36;34.92;;;17.35;;
27213;SDS011;14723;55.814;37.460;2023-04-03T09:50:52;31.33;;;16.92;;
27213;SDS011;14723;55.814;37.460;2023-04-03T09:57:09;36.20;;;16.10;;
27213;SDS011;14723;55.814;37.460;2023-04-03T10:00:20;25.73;;;16.17;;
27213;SDS011;14723;55.814;37.460;2023-04-03T10:03:28;46.30;;;17.35;;
27213;SDS011;14723;55.814;37.460;2023-04-03T10:06:36;40.70;;;17.30;;
27213;SDS011;14723;55.814;37.460;2023-04-03T10:09:43;34.70;;;16.20;;
27213;SDS011;14723;55.814;37.460;2023-04-03T10:13:06;33.83;;;15.68;;
27213;SDS011;14723;55.814;37.460;2023-04-03T10:16:20;35.63;;;15.65;;
27213;SDS011;14723;55.814;37.460;2023-04-03T10:19:34;25.95;;;14.65;;
27213;SDS011;14723;55.814;37.460;2023-04-03T10:22:41;30.17;;;14.88;;
27213;SDS011;14723;55.814;37.460;2023-04-03T10:25:53;26.48;;;13.02;;
27213;SDS011;14723;55.814;37.460;2023-04-03T10:29:05;27.23;;;12.55;;
27213;SDS011;14723;55.814;37.460;2023-04-03T10:32:19;26.67;;;11.55;;
27213;SDS011;14723;55.814;37.460;2023-04-03T10:35:33;27.20;;;11.48;;
27213;SDS011;14723;55.814;37.460;2023-04-03T10:38:43;34.45;;;13.98;;
27213;SDS011;14723;55.814;37.460;2023-04-03T10:41:54;30.17;;;12.82;;
27213;SDS011;14723;55.814;37.460;2023-04-03T10:45:23;32.00;;;15.07;;
27213;SDS011;14723;55.814;37.460;2023-04-03T10:48:33;25.77;;;12.57;;
27213;SDS011;14723;55.814;37.460;2023-04-03T10:51:41;25.25;;;12.13;;
27213;SDS011;14723;55.814;37.460;2023-04-03T10:54:52;27.42;;;11.30;;
27213;SDS011;14723;55.814;37.460;2023-04-03T10:57:59;20.65;;;10.65;;
27213;SDS011;14723;55.814;37.460;2023-04-03T11:01:10;23.27;;;10.50;;
27213;SDS011;14723;55.814;37.460;2023-04-03T11:04:17;19.92;;;11.38;;
27213;SDS011;14723;55.814;37.460;2023-04-03T11:07:24;24.05;;;11.32;;
27213;SDS011;14723;55.814;37.460;2023-04-03T11:10:36;21.13;;;11.73;;
27213;SDS011;14723;55.814;37.460;2023-04-03T11:13:43;23.33;;;12.40;;
27213;SDS011;14723;55.814;37.460;2023-04-03T11:16:55;35.65;;;13.85;;
27213;SDS011;14723;55.814;37.460;2023-04-03T11:20:06;28.40;;;13.23;;
27213;SDS011;14723;55.814;37.460;2023-04-03T11:23:15;31.92;;;13.15;;
27213;SDS011;14723;55.814;37.460;2023-04-03T11:26:26;31.40;;;13.20;;
27213;SDS011;14723;55.814;37.460;2023-04-03T11:29:32;23.13;;;12.48;;
27213;SDS011;14723;55.814;37.460;2023-04-03T11:32:51;24.85;;;12.55;;
27213;SDS011;14723;55.814;37.460;2023-04-03T11:35:59;34.53;;;13.15;;
27213;SDS011;14723;55.814;37.460;2023-04-03T11:39:21;25.75;;;11.68;;
27213;SDS011;14723;55.814;37.460;2023-04-03T11:42:29;34.95;;;10.30;;
27213;SDS011;14723;55.814;37.460;2023-04-03T11:45:38;18.70;;;9.65;;
27213;SDS011;14723;55.814;37.460;2023-04-03T11:48:57;19.10;;;9.43;;
27213;SDS011;14723;55.814;37.460;2023-04-03T11:52:03;19.65;;;10.48;;
27213;SDS011;14723;55.814;37.460;2023-04-03T11:58:30;19.98;;;10.27;;
27213;SDS011;14723;55.814;37.460;2023-04-03T12:01:44;21.70;;;9.55;;
27213;SDS011;14723;55.814;37.460;2023-04-03T12:08:26;20.25;;;10.57;;
27213;SDS011;14723;55.814;37.460;2023-04-03T12:11:32;25.52;;;10.48;;
27213;SDS011;14723;55.814;37.460;2023-04-03T12:14:38;18.45;;;10.10;;
27213;SDS011;14723;55.814;37.460;2023-04-03T12:17:43;20.88;;;10.23;;
27213;SDS011;14723;55.814;37.460;2023-04-03T12:20:53;22.58;;;11.20;;
27213;SDS011;14723;55.814;37.460;2023-04-03T12:24:03;27.55;;;11.50;;
27213;SDS011;14723;55.814;37.460;2023-04-03T12:30:31;22.25;;;11.60;;
27213;SDS011;14723;55.814;37.460;2023-04-03T12:36:48;26.20;;;12.90;;
27213;SDS011;14723;55.814;37.460;2023-04-03T12:40:03;26.50;;;13.43;;
27213;SDS011;14723;55.814;37.460;2023-04-03T12:43:19;29.17;;;13.00;;
27213;SDS011;14723;55.814;37.460;2023-04-03T12:46:28;32.03;;;12.32;;
27213;SDS011;14723;55.814;37.460;2023-04-03T12:49:40;30.75;;;13.02;;
27213;SDS011;14723;55.814;37.460;2023-04-03T12:52:48;24.88;;;12.40;;
27213;SDS011;14723;55.814;37.460;2023-04-03T12:56:18;22.73;;;12.13;;
27213;SDS011;14723;55.814;37.460;2023-04-03T12:59:24;29.48;;;12.40;;
27213;SDS011;14723;55.814;37.460;2023-04-03T13:02:30;28.23;;;12.82;;
27213;SDS011;14723;55.814;37.460;2023-04-03T13:05:36;27.17;;;11.90;;
27213;SDS011;14723;55.814;37.460;2023-04-03T13:08:48;24.10;;;12.60;;
27213;SDS011;14723;55.814;37.460;2023-04-03T13:11:56;26.95;;;12.80;;
27213;SDS011;14723;55.814;37.460;2023-04-03T13:15:11;28.55;;;12.50;;
27213;SDS011;14723;55.814;37.460;2023-04-03T13:21:40;20.70;;;9.50;;
27213;SDS011;14723;55.814;37.460;2023-04-03T13:24:46;14.98;;;9.05;;
27213;SDS011;14723;55.814;37.460;2023-04-03T13:27:55;23.95;;;8.45;;
27213;SDS011;14723;55.814;37.460;2023-04-03T13:31:17;22.40;;;7.43;;
27213;SDS011;14723;55.814;37.460;2023-04-03T13:34:24;22.08;;;7.68;;
27213;SDS011;14723;55.814;37.460;2023-04-03T13:37:31;20.20;;;7.53;;
27213;SDS011;14723;55.814;37.460;2023-04-03T13:40:46;16.23;;;7.07;;
27213;SDS011;14723;55.814;37.460;2023-04-03T13:44:23;19.90;;;7.30;;
27213;SDS011;14723;55.814;37.460;2023-04-03T13:47:37;15.15;;;6.78;;
27213;SDS011;14723;55.814;37.460;2023-04-03T13:50:50;19.42;;;7.13;;
27213;SDS011;14723;55.814;37.460;2023-04-03T13:53:57;16.50;;;8.18;;
27213;SDS011;14723;55.814;37.460;2023-04-03T13:57:10;17.08;;;7.30;;
27213;SDS011;14723;55.814;37.460;2023-04-03T14:00:25;14.27;;;7.65;;
27213;SDS011;14723;55.814;37.460;2023-04-03T14:03:36;22.33;;;8.18;;
27213;SDS011;14723;55.814;37.460;2023-04-03T14:06:42;20.60;;;8.32;;
27213;SDS011;14723;55.814;37.460;2023-04-03T14:09:48;21.23;;;7.65;;
27213;SDS011;14723;55.814;37.460;2023-04-03T14:12:53;21.33;;;9.27;;
27213;SDS011;14723;55.814;37.460;2023-04-03T14:16:01;28.30;;;8.80;;
27213;SDS011;14723;55.814;37.460;2023-04-03T14:19:18;27.70;;;9.10;;
27213;SDS011;14723;55.814;37.460;2023-04-03T14:22:26;22.33;;;8.63;;
27213;SDS011;14723;55.814;37.460;2023-04-03T14:25:31;17.48;;;8.38;;
27213;SDS011;14723;55.814;37.460;2023-04-03T14:28:37;17.67;;;8.80;;
27213;SDS011;14723;55.814;37.460;2023-04-03T14:31:49;22.98;;;8.95;;
27213;SDS011;14723;55.814;37.460;2023-04-03T14:35:12;19.75;;;9.15;;
27213;SDS011;14723;55.814;37.460;2023-04-03T14:38:22;20.95;;;9.25;;
27213;SDS011;14723;55.814;37.460;2023-04-03T14:41:27;17.25;;;9.82;;
27213;SDS011;14723;55.814;37.460;2023-04-03T14:44:33;24.48;;;11.00;;
27213;SDS011;14723;55.814;37.460;2023-04-03T14:47:42;18.40;;;10.20;;
27213;SDS011;14723;55.814;37.460;2023-04-03T14:50:50;20.17;;;10.95;;
27213;SDS011;14723;55.814;37.460;2023-04-03T14:54:10;16.65;;;10.02;;
27213;SDS011;14723;55.814;37.460;2023-04-03T14:57:16;18.88;;;9.80;;
27213;SDS011;14723;55.814;37.460;2023-04-03T15:00:22;21.52;;;11.38;;
27213;SDS011;14723;55.814;37.460;2023-04-03T15:03:30;20.17;;;9.50;;
27213;SDS011;14723;55.814;37.460;2023-04-03T15:06:36;23.23;;;9.32;;
27213;SDS011;14723;55.814;37.460;2023-04-03T15:09:41;16.67;;;8.90;;
27213;SDS011;14723;55.814;37.460;2023-04-03T15:12:47;16.15;;;9.30;;
27213;SDS011;14723;55.814;37.460;2023-04-03T15:15:53;16.17;;;9.70;;
27213;SDS011;14723;55.814;37.460;2023-04-03T15:19:01;22.85;;;10.60;;
27213;SDS011;14723;55.814;37.460;2023-04-03T15:22:06;22.67;;;9.18;;
27213;SDS011;14723;55.814;37.460;2023-04-03T15:25:11;20.30;;;9.75;;
27213;SDS011;14723;55.814;37.460;2023-04-03T15:28:18;20.98;;;10.27;;
27213;SDS011;14723;55.814;37.460;2023-04-03T15:31:24;20.77;;;10.80;;
27213;SDS011;14723;55.814;37.460;2023-04-03T15:34:32;21.52;;;11.27;;
27213;SDS011;14723;55.814;37.460;2023-04-03T15:37:38;23.33;;;11.32;;
27213;SDS011;14723;55.814;37.460;2023-04-03T15:40:43;18.75;;;10.85;;
27213;SDS011;14723;55.814;37.460;2023-04-03T15:43:49;18.92;;;11.18;;
27213;SDS011;14723;55.814;37.460;2023-04-03T15:46:54;28.23;;;12.45;;
27213;SDS011;14723;55.814;37.460;2023-04-03T15:50:03;20.80;;;12.05;;
27213;SDS011;14723;55.814;37.460;2023-04-03T15:53:10;27.27;;;12.48;;
27213;SDS011;14723;55.814;37.460;2023-04-03T15:56:16;28.85;;;12.25;;
27213;SDS011;14723;55.814;37.460;2023-04-03T15:59:21;26.02;;;12.10;;
27213;SDS011;14723;55.814;37.460;2023-04-03T16:02:27;24.58;;;12.02;;
27213;SDS011;14723;55.814;37.460;2023-04-03T16:05:35;26.83;;;11.80;;
27213;SDS011;14723;55.814;37.460;2023-04-03T16:08:41;28.38;;;12.52;;
27213;SDS011;14723;55.814;37.460;2023-04-03T16:11:47;28.13;;;12.80;;
27213;SDS011;14723;55.814;37.460;2023-04-03T16:14:52;34.70;;;11.52;;
27213;SDS011;14723;55.814;37.460;2023-04-03T16:17:58;27.40;;;11.93;;
27213;SDS011;14723;55.814;37.460;2023-04-03T16:21:06;22.83;;;11.82;;
27213;SDS011;14723;55.814;37.460;2023-04-03T16:24:12;25.70;;;12.55;;
27213;SDS011;14723;55.814;37.460;2023-04-03T16:27:20;30.60;;;12.80;;
27213;SDS011;14723;55.814;37.460;2023-04-03T16:30:29;28.15;;;11.77;;
27213;SDS011;14723;55.814;37.460;2023-04-03T16:33:35;24.38;;;11.73;;
27213;SDS011;14723;55.814;37.460;2023-04-03T16:36:44;28.25;;;13.55;;
27213;SDS011;14723;55.814;37.460;2023-04-03T16:42:54;25.42;;;12.25;;
27213;SDS011;14723;55.814;37.460;2023-04-03T16:46:00;42.35;;;13.90;;
27213;SDS011;14723;55.814;37.460;2023-04-03T16:49:05;32.33;;;14.35;;
27213;SDS011;14723;55.814;37.460;2023-04-03T16:52:14;27.70;;;13.63;;
27213;SDS011;14723;55.814;37.460;2023-04-03T16:55:19;23.65;;;14.48;;
27213;SDS011;14723;55.814;37.460;2023-04-03T16:58:24;24.83;;;14.25;;
27213;SDS011;14723;55.814;37.460;2023-04-03T17:01:30;25.75;;;14.00;;
27213;SDS011;14723;55.814;37.460;2023-04-03T17:04:35;28.13;;;13.73;;
27213;SDS011;14723;55.814;37.460;2023-04-03T17:07:43;24.05;;;14.23;;
27213;SDS011;14723;55.814;37.460;2023-04-03T17:10:49;25.73;;;14.65;;
27213;SDS011;14723;55.814;37.460;2023-04-03T17:13:55;25.73;;;14.60;;
27213;SDS011;14723;55.814;37.460;2023-04-03T17:17:01;28.13;;;15.45;;
27213;SDS011;14723;55.814;37.460;2023-04-03T17:20:07;25.15;;;15.13;;
27213;SDS011;14723;55.814;37.460;2023-04-03T17:23:16;26.08;;;15.52;;
27213;SDS011;14723;55.814;37.460;2023-04-03T17:26:22;25.38;;;15.50;;
27213;SDS011;14723;55.814;37.460;2023-04-03T17:29:28;23.30;;;14.63;;
27213;SDS011;14723;55.814;37.460;2023-04-03T17:32:33;25.55;;;15.88;;
27213;SDS011;14723;55.814;37.460;2023-04-03T17:35:39;20.90;;;14.55;;
27213;SDS011;14723;55.814;37.460;2023-04-03T17:38:51;26.95;;;14.52;;
27213;SDS011;14723;55.814;37.460;2023-04-03T17:41:57;24.17;;;14.55;;
27213;SDS011;14723;55.814;37.460;2023-04-03T17:45:03;27.73;;;16.10;;
27213;SDS011;14723;55.814;37.460;2023-04-03T17:48:09;29.17;;;16.02;;
27213;SDS011;14723;55.814;37.460;2023-04-03T17:51:15;23.00;;;14.32;;
27213;SDS011;14723;55.814;37.460;2023-04-03T17:54:36;24.02;;;15.05;;
27213;SDS011;14723;55.814;37.460;2023-04-03T18:00:47;27.73;;;15.80;;
27213;SDS011;14723;55.814;37.460;2023-04-03T18:03:54;27.90;;;15.77;;
27213;SDS011;14723;55.814;37.460;2023-04-03T18:06:59;22.58;;;14.93;;
27213;SDS011;14723;55.814;37.460;2023-04-03T18:10:09;23.17;;;15.55;;
27213;SDS011;14723;55.814;37.460;2023-04-03T18:13:16;26.08;;;16.00;;
27213;SDS011;14723;55.814;37.460;2023-04-03T18:16:21;24.67;;;15.68;;
27213;SDS011;14723;55.814;37.460;2023-04-03T18:19:26;26.38;;;15.57;;
27213;SDS011;14723;55.814;37.460;2023-04-03T18:22:32;24.08;;;15.75;;
27213;SDS011;14723;55.814;37.460;2023-04-03T18:25:40;28.45;;;15.15;;
27213;SDS011;14723;55.814;37.460;2023-04-03T18:28:47;27.63;;;16.02;;
27213;SDS011;14723;55.814;37.460;2023-04-03T18:31:52;28.73;;;15.95;;
27213;SDS011;14723;55.814;37.460;2023-04-03T18:34:58;23.85;;;15.38;;
27213;SDS011;14723;55.814;37.460;2023-04-03T18:38:04;22.48;;;15.15;;
27213;SDS011;14723;55.814;37.460;2023-04-03T18:41:12;22.20;;;15.25;;
27213;SDS011;14723;55.814;37.460;2023-04-03T18:44:18;24.50;;;15.25;;